Time;durP1;ratioP1;P1;durP2;ratioP2;P2;SDS_P1;SDS_P2;PMS_P1;PMS_P2;Temp;Humidity;BMP_temperature;BMP_pressure;BME280_temperature;BME280_humidity;BME280_pressure;Samples;Min_cycle;Max_cycle;Signal;HPM_P1;HPM_P2
2022/09/28 00:01:03;;;;;;;;;;;22.40;42.50;;;;;;486783;245;1160;-74
2022/09/28 00:03:05;;;;;;;;;;;22.40;42.50;;;;;;486689;245;2193;-75
2022/09/28 00:05:06;;;;;;;;;;;22.30;42.50;;;;;;486885;244;1143;-74
2022/09/28 00:07:08;;;;;;;;;;;22.40;42.70;;;;;;486839;245;1091;-74
2022/09/28 00:09:09;;;;;;;;;;;22.50;42.60;;;;;;486846;245;1163;-74
2022/09/28 00:11:11;;;;;;;;;;;22.50;42.40;;;;;;486850;245;1086;-74
2022/09/28 00:13:12;;;;;;;;;;;22.60;42.40;;;;;;486896;245;1030;-74
2022/09/28 00:15:13;;;;;;;;;;;22.70;42.30;;;;;;486872;245;1186;-74
2022/09/28 00:17:15;;;;;;;;;;;22.80;42.10;;;;;;486798;245;1203;-74
2022/09/28 00:19:16;;;;;;;;;;;22.80;42.00;;;;;;486905;244;1440;-74
2022/09/28 00:21:17;;;;;;;;;;;22.80;42.00;;;;;;486837;245;1123;-74
2022/09/28 00:23:19;;;;;;;;;;;22.90;42.00;;;;;;486826;244;2183;-74
2022/09/28 00:25:20;;;;;;;;;;;22.90;42.00;;;;;;486910;245;1229;-74
2022/09/28 00:27:22;;;;;;;;;;;22.90;42.10;;;;;;486837;245;1333;-74
2022/09/28 00:29:23;;;;;;;;;;;22.80;42.00;;;;;;486893;244;1104;-74
2022/09/28 00:31:25;;;;;;;;;;;22.70;42.20;;;;;;486791;245;1176;-74
2022/09/28 00:33:26;;;;;;;;;;;22.70;42.30;;;;;;486685;244;1141;-74
2022/09/28 00:35:27;;;;;;;;;;;22.60;42.60;;;;;;486881;245;1105;-74
2022/09/28 00:37:28;;;;;;;;;;;22.50;42.70;;;;;;486861;245;1300;-74
2022/09/28 00:39:31;;;;;;;;;;;22.40;42.80;;;;;;486858;244;1134;-74
2022/09/28 00:41:32;;;;;;;;;;;22.50;42.80;;;;;;486783;244;1160;-74
2022/09/28 00:43:33;;;;;;;;;;;22.40;43.00;;;;;;486801;245;2198;-74
2022/09/28 00:45:35;;;;;;;;;;;22.30;43.00;;;;;;486822;245;1224;-74
2022/09/28 00:47:36;;;;;;;;;;;22.30;43.00;;;;;;486819;245;1123;-74
2022/09/28 00:49:39;;;;;;;;;;;22.30;43.10;;;;;;486922;245;1343;-74
2022/09/28 00:51:39;;;;;;;;;;;22.20;43.30;;;;;;486740;245;1454;-74
2022/09/28 00:53:40;;;;;;;;;;;22.20;43.30;;;;;;486924;245;1304;-74
2022/09/28 00:55:42;;;;;;;;;;;22.40;43.20;;;;;;486856;244;1335;-74
2022/09/28 00:57:43;;;;;;;;;;;22.50;43.00;;;;;;486978;245;1104;-74
2022/09/28 00:59:44;;;;;;;;;;;22.50;42.80;;;;;;486819;244;1002;-74
2022/09/28 01:01:46;;;;;;;;;;;22.60;42.80;;;;;;486878;245;1241;-74
2022/09/28 01:03:47;;;;;;;;;;;22.70;42.50;;;;;;486671;244;2210;-74
2022/09/28 01:05:48;;;;;;;;;;;22.70;42.50;;;;;;486848;245;1102;-74
2022/09/28 01:07:50;;;;;;;;;;;22.80;42.40;;;;;;486874;245;1167;-74
2022/09/28 01:09:52;;;;;;;;;;;22.80;42.40;;;;;;486873;245;1041;-74
2022/09/28 01:11:54;;;;;;;;;;;22.80;42.30;;;;;;486942;244;1266;-74
2022/09/28 01:13:54;;;;;;;;;;;22.80;42.20;;;;;;486791;245;1459;-74
2022/09/28 01:15:55;;;;;;;;;;;22.70;42.30;;;;;;486839;244;1221;-74
2022/09/28 01:17:57;;;;;;;;;;;22.60;42.60;;;;;;486843;245;1116;-74
2022/09/28 01:19:58;;;;;;;;;;;22.50;42.80;;;;;;486932;244;1097;-74
2022/09/28 01:22:00;;;;;;;;;;;22.40;43.10;;;;;;486913;245;1133;-74
2022/09/28 01:24:01;;;;;;;;;;;22.30;43.20;;;;;;486851;245;2209;-74
2022/09/28 01:26:02;;;;;;;;;;;22.30;43.30;;;;;;486807;245;1110;-74
2022/09/28 01:28:03;;;;;;;;;;;22.30;43.40;;;;;;486927;244;1197;-74
2022/09/28 01:30:05;;;;;;;;;;;22.20;43.50;;;;;;486799;245;1327;-74
2022/09/28 01:32:06;;;;;;;;;;;22.20;43.50;;;;;;486794;245;1167;-74
2022/09/28 01:34:07;;;;;;;;;;;22.30;43.50;;;;;;486631;245;1158;-74
2022/09/28 01:36:09;;;;;;;;;;;22.30;43.60;;;;;;486840;245;1165;-74
2022/09/28 01:38:10;;;;;;;;;;;22.30;43.50;;;;;;486858;245;1251;-74
2022/09/28 01:40:12;;;;;;;;;;;22.40;43.40;;;;;;486856;245;1104;-74
2022/09/28 01:42:13;;;;;;;;;;;22.50;43.20;;;;;;486897;244;1120;-74
2022/09/28 01:44:14;;;;;;;;;;;22.50;43.00;;;;;;486925;244;2191;-74
2022/09/28 01:46:16;;;;;;;;;;;22.60;43.00;;;;;;486921;245;1165;-74
2022/09/28 01:48:17;;;;;;;;;;;22.60;42.80;;;;;;486899;244;1193;-74
2022/09/28 01:50:18;;;;;;;;;;;22.70;42.50;;;;;;486858;245;1145;-74
2022/09/28 01:52:20;;;;;;;;;;;22.70;42.40;;;;;;486998;244;1151;-74
2022/09/28 01:54:22;;;;;;;;;;;22.60;42.60;;;;;;486901;244;1135;-74
2022/09/28 01:56:22;;;;;;;;;;;22.50;42.70;;;;;;486766;245;1574;-74
2022/09/28 01:58:24;;;;;;;;;;;22.50;42.70;;;;;;486849;244;1129;-74
2022/09/28 02:00:25;;;;;;;;;;;22.40;42.80;;;;;;486802;245;1162;-74
2022/09/28 02:02:28;;;;;;;;;;;22.40;43.00;;;;;;486746;245;1195;-74
2022/09/28 02:04:28;;;;;;;;;;;22.30;43.00;;;;;;486538;245;2202;-74
2022/09/28 02:06:30;;;;;;;;;;;22.30;43.10;;;;;;486862;244;1217;-74
2022/09/28 02:08:30;;;;;;;;;;;22.50;42.90;;;;;;486859;245;1517;-74
2022/09/28 02:10:32;;;;;;;;;;;22.50;42.70;;;;;;486780;245;1102;-74
2022/09/28 02:12:33;;;;;;;;;;;22.60;42.60;;;;;;486897;245;1151;-74
2022/09/28 02:14:34;;;;;;;;;;;22.70;42.30;;;;;;486846;244;1175;-74
2022/09/28 02:16:36;;;;;;;;;;;22.70;42.20;;;;;;486818;245;1373;-74
2022/09/28 02:18:37;;;;;;;;;;;22.70;42.20;;;;;;486908;244;1187;-74
2022/09/28 02:20:38;;;;;;;;;;;22.80;42.20;;;;;;486896;245;1227;-74
2022/09/28 02:22:41;;;;;;;;;;;22.70;42.10;;;;;;486883;244;1167;-74
2022/09/28 02:24:41;;;;;;;;;;;22.50;42.40;;;;;;486761;245;2190;-74
2022/09/28 02:26:42;;;;;;;;;;;22.50;42.50;;;;;;486928;244;1198;-74
2022/09/28 02:28:44;;;;;;;;;;;22.40;42.80;;;;;;486855;244;1171;-74
2022/09/28 02:30:45;;;;;;;;;;;22.40;42.80;;;;;;486824;245;1083;-74
2022/09/28 02:32:46;;;;;;;;;;;22.30;42.70;;;;;;486682;245;1056;-74
2022/09/28 02:34:48;;;;;;;;;;;22.30;43.00;;;;;;486798;245;1206;-74
2022/09/28 02:36:49;;;;;;;;;;;22.40;42.90;;;;;;486841;245;1115;-74
2022/09/28 02:38:50;;;;;;;;;;;22.20;42.90;;;;;;486838;245;1168;-74
2022/09/28 02:40:52;;;;;;;;;;;22.20;43.00;;;;;;486862;245;1064;-74
2022/09/28 02:42:53;;;;;;;;;;;22.30;43.00;;;;;;486936;245;1199;-74
2022/09/28 02:44:56;;;;;;;;;;;22.40;42.80;;;;;;486836;245;2202;-74
2022/09/28 02:46:56;;;;;;;;;;;22.50;42.60;;;;;;486758;245;1486;-74
2022/09/28 02:48:57;;;;;;;;;;;22.50;42.40;;;;;;486946;244;1076;-74
2022/09/28 02:50:59;;;;;;;;;;;22.60;42.30;;;;;;486841;245;1052;-74
2022/09/28 02:53:00;;;;;;;;;;;22.60;42.30;;;;;;486845;245;1147;-74
2022/09/28 02:55:01;;;;;;;;;;;22.60;42.20;;;;;;486841;245;1063;-74
2022/09/28 02:57:03;;;;;;;;;;;22.70;42.20;;;;;;486896;244;1053;-74
2022/09/28 02:59:04;;;;;;;;;;;22.70;42.10;;;;;;486881;244;1100;-74
2022/09/28 03:01:05;;;;;;;;;;;22.70;42.20;;;;;;486949;244;1217;-74
2022/09/28 03:03:07;;;;;;;;;;;22.60;42.40;;;;;;486671;244;1139;-74
2022/09/28 03:05:08;;;;;;;;;;;22.50;42.40;;;;;;486830;245;2178;-74
2022/09/28 03:07:09;;;;;;;;;;;22.50;42.60;;;;;;486846;245;1152;-74
2022/09/28 03:09:11;;;;;;;;;;;22.30;42.60;;;;;;486838;244;1248;-74
2022/09/28 03:11:12;;;;;;;;;;;22.40;42.70;;;;;;486819;245;1127;-74
2022/09/28 03:13:15;;;;;;;;;;;22.40;42.70;;;;;;486890;244;1198;-74
2022/09/28 03:15:15;;;;;;;;;;;22.30;42.60;;;;;;486693;245;1396;-74
2022/09/28 03:17:16;;;;;;;;;;;22.30;42.80;;;;;;486852;245;1166;-74
2022/09/28 03:19:18;;;;;;;;;;;22.30;42.90;;;;;;486918;245;1211;-74
2022/09/28 03:21:19;;;;;;;;;;;22.30;42.80;;;;;;486875;244;1157;-74
2022/09/28 03:23:20;;;;;;;;;;;22.20;42.70;;;;;;486803;245;1187;-74
2022/09/28 03:25:22;;;;;;;;;;;22.20;42.90;;;;;;486876;245;2209;-74
2022/09/28 03:27:23;;;;;;;;;;;22.30;42.90;;;;;;486844;245;1293;-74
2022/09/28 03:29:25;;;;;;;;;;;22.40;42.40;;;;;;486811;244;1094;-74
2022/09/28 03:31:26;;;;;;;;;;;22.50;42.20;;;;;;486793;245;1446;-74
2022/09/28 03:33:27;;;;;;;;;;;22.50;42.20;;;;;;486587;244;1312;-74
2022/09/28 03:35:28;;;;;;;;;;;22.60;42.00;;;;;;486852;245;1164;-74
2022/09/28 03:37:30;;;;;;;;;;;22.60;42.00;;;;;;486833;245;1161;-74
2022/09/28 03:39:31;;;;;;;;;;;22.70;41.90;;;;;;486916;244;1188;-74
2022/09/28 03:41:32;;;;;;;;;;;22.70;41.70;;;;;;486962;245;1337;-74
2022/09/28 03:43:34;;;;;;;;;;;22.80;41.70;;;;;;486870;244;1062;-74
2022/09/28 03:45:35;;;;;;;;;;;22.80;41.50;;;;;;486838;244;2170;-74
2022/09/28 03:47:36;;;;;;;;;;;22.80;41.40;;;;;;486868;245;987;-74
2022/09/28 03:49:38;;;;;;;;;;;22.80;41.50;;;;;;486865;244;1085;-74
2022/09/28 03:51:39;;;;;;;;;;;22.90;41.40;;;;;;486872;245;1078;-74
2022/09/28 03:53:40;;;;;;;;;;;22.90;41.20;;;;;;487049;244;1172;-74
2022/09/28 03:55:42;;;;;;;;;;;22.90;41.30;;;;;;486844;245;1221;-74
2022/09/28 03:57:43;;;;;;;;;;;22.80;41.30;;;;;;486941;245;1180;-74
2022/09/28 03:59:44;;;;;;;;;;;22.70;41.50;;;;;;486917;244;1161;-74
2022/09/28 04:01:46;;;;;;;;;;;22.60;41.70;;;;;;486817;244;1131;-74
2022/09/28 04:03:47;;;;;;;;;;;22.60;41.90;;;;;;486631;244;1102;-74
2022/09/28 04:05:48;;;;;;;;;;;22.50;41.90;;;;;;486836;245;2209;-74
2022/09/28 04:07:50;;;;;;;;;;;22.50;42.00;;;;;;486747;244;1147;-74
2022/09/28 04:09:51;;;;;;;;;;;22.40;42.00;;;;;;486783;245;1092;-74
2022/09/28 04:11:52;;;;;;;;;;;22.30;42.30;;;;;;486750;245;1074;-74
2022/09/28 04:13:54;;;;;;;;;;;22.30;42.40;;;;;;486814;244;1109;-74
2022/09/28 04:15:55;;;;;;;;;;;22.30;42.30;;;;;;486731;245;1216;-74
2022/09/28 04:17:56;;;;;;;;;;;22.30;42.40;;;;;;486835;244;1256;-74
2022/09/28 04:19:58;;;;;;;;;;;22.30;42.40;;;;;;486780;245;1110;-74
2022/09/28 04:22:00;;;;;;;;;;;22.30;42.30;;;;;;486875;245;1291;-74
2022/09/28 04:24:01;;;;;;;;;;;22.30;42.30;;;;;;486889;244;1489;-74
2022/09/28 04:26:02;;;;;;;;;;;22.30;42.60;;;;;;486743;245;2220;-74
2022/09/28 04:30:23;;;;;;;;;;;22.40;42.20;;;;;;486664;245;1097;-74
2022/09/28 04:32:24;;;;;;;;;;;22.40;41.90;;;;;;486772;244;1424;-74
2022/09/28 04:34:26;;;;;;;;;;;22.50;41.90;;;;;;486633;245;1123;-74
2022/09/28 04:36:27;;;;;;;;;;;22.60;41.70;;;;;;486798;245;1225;-74
2022/09/28 04:38:28;;;;;;;;;;;22.60;41.60;;;;;;486708;245;1176;-74
2022/09/28 04:40:29;;;;;;;;;;;22.70;41.50;;;;;;486680;245;1152;-74
2022/09/28 04:42:30;;;;;;;;;;;22.80;41.40;;;;;;486820;245;1141;-74
2022/09/28 04:44:32;;;;;;;;;;;22.60;41.50;;;;;;486663;244;2194;-74
2022/09/28 04:46:33;;;;;;;;;;;22.50;41.70;;;;;;486860;245;1152;-74
2022/09/28 04:48:34;;;;;;;;;;;22.40;41.90;;;;;;486734;245;1130;-74
2022/09/28 04:50:36;;;;;;;;;;;22.30;42.00;;;;;;486782;245;1112;-74
2022/09/28 04:52:37;;;;;;;;;;;22.30;42.00;;;;;;486458;245;1200;-74
2022/09/28 04:54:38;;;;;;;;;;;22.30;42.10;;;;;;486669;245;1062;-74
2022/09/28 04:56:40;;;;;;;;;;;22.20;42.10;;;;;;486607;244;1034;-74
2022/09/28 04:58:41;;;;;;;;;;;22.20;42.30;;;;;;486574;245;1046;-74
2022/09/28 05:00:42;;;;;;;;;;;22.30;42.10;;;;;;486688;244;1090;-74
2022/09/28 05:02:44;;;;;;;;;;;22.20;42.20;;;;;;486596;244;1095;-74
2022/09/28 05:04:45;;;;;;;;;;;22.20;42.10;;;;;;486665;245;2194;-74
2022/09/28 05:06:46;;;;;;;;;;;22.10;42.30;;;;;;486703;244;1141;-74
2022/09/28 05:08:48;;;;;;;;;;;22.20;42.40;;;;;;486762;244;1154;-74
2022/09/28 05:10:49;;;;;;;;;;;22.30;42.20;;;;;;486804;245;1100;-74
2022/09/28 05:12:50;;;;;;;;;;;22.30;41.90;;;;;;486757;244;1114;-74
2022/09/28 05:14:52;;;;;;;;;;;22.40;41.90;;;;;;486703;245;1161;-74
2022/09/28 05:16:53;;;;;;;;;;;22.40;41.80;;;;;;486710;245;1494;-74
2022/09/28 05:18:54;;;;;;;;;;;22.60;41.70;;;;;;486811;245;1230;-74
2022/09/28 05:20:56;;;;;;;;;;;22.40;41.70;;;;;;486752;245;1120;-74
2022/09/28 05:22:57;;;;;;;;;;;22.60;41.60;;;;;;486951;244;1317;-74
2022/09/28 05:24:59;;;;;;;;;;;22.70;41.40;;;;;;486826;245;2170;-74
2022/09/28 05:27:00;;;;;;;;;;;22.70;41.40;;;;;;486848;244;1120;-74
2022/09/28 05:29:01;;;;;;;;;;;22.80;41.60;;;;;;486736;245;1125;-74
2022/09/28 05:31:02;;;;;;;;;;;22.70;41.70;;;;;;486740;244;1151;-74
2022/09/28 05:33:04;;;;;;;;;;;22.50;42.10;;;;;;486451;245;1183;-74
2022/09/28 05:35:05;;;;;;;;;;;22.40;42.20;;;;;;486789;244;1119;-74
2022/09/28 05:37:06;;;;;;;;;;;22.30;42.30;;;;;;486867;244;1128;-74
2022/09/28 05:39:08;;;;;;;;;;;22.30;42.40;;;;;;486755;245;1142;-74
2022/09/28 05:41:09;;;;;;;;;;;22.30;42.40;;;;;;486683;244;1147;-74
2022/09/28 05:43:10;;;;;;;;;;;22.30;42.50;;;;;;486736;245;1056;-74
2022/09/28 05:45:12;;;;;;;;;;;22.30;42.50;;;;;;486644;244;2224;-74
2022/09/28 05:47:13;;;;;;;;;;;22.10;42.70;;;;;;486802;244;1220;-74
2022/09/28 05:49:14;;;;;;;;;;;22.20;42.70;;;;;;486733;244;1114;-74
2022/09/28 05:51:16;;;;;;;;;;;22.30;42.40;;;;;;486633;245;1179;-74
2022/09/28 05:53:17;;;;;;;;;;;22.40;42.20;;;;;;486672;244;1184;-74
2022/09/28 05:55:18;;;;;;;;;;;22.40;42.00;;;;;;486812;244;1165;-74
2022/09/28 05:57:20;;;;;;;;;;;22.60;42.10;;;;;;486694;244;1095;-74
2022/09/28 05:59:21;;;;;;;;;;;22.50;41.90;;;;;;486594;244;1208;-74
2022/09/28 06:01:23;;;;;;;;;;;22.60;41.90;;;;;;486580;244;1157;-74
2022/09/28 06:03:24;;;;;;;;;;;22.60;41.80;;;;;;486393;244;1116;-74
2022/09/28 06:05:25;;;;;;;;;;;22.50;42.00;;;;;;486774;245;2187;-74
2022/09/28 06:07:26;;;;;;;;;;;22.40;42.20;;;;;;486769;244;1165;-74
2022/09/28 06:09:28;;;;;;;;;;;22.30;42.30;;;;;;486884;245;1196;-74
2022/09/28 06:11:29;;;;;;;;;;;22.30;42.30;;;;;;486676;244;1156;-74
2022/09/28 06:13:30;;;;;;;;;;;22.30;42.40;;;;;;486718;245;1127;-74
2022/09/28 06:15:32;;;;;;;;;;;22.30;42.40;;;;;;486679;244;1046;-74
2022/09/28 06:17:33;;;;;;;;;;;22.20;42.40;;;;;;486692;244;1917;-74
2022/09/28 06:19:34;;;;;;;;;;;22.30;42.40;;;;;;486623;244;1071;-74
2022/09/28 06:21:36;;;;;;;;;;;22.30;42.30;;;;;;486675;245;1065;-74
2022/09/28 06:23:37;;;;;;;;;;;22.20;42.40;;;;;;486410;244;1092;-74
2022/09/28 06:25:38;;;;;;;;;;;22.20;42.50;;;;;;486536;245;2198;-74
2022/09/28 06:27:41;;;;;;;;;;;22.30;42.50;;;;;;486330;244;1034;-74
2022/09/28 06:29:41;;;;;;;;;;;22.30;42.30;;;;;;486499;245;1410;-74
2022/09/28 06:31:42;;;;;;;;;;;22.40;42.20;;;;;;486542;244;1145;-74
2022/09/28 06:33:43;;;;;;;;;;;22.40;42.10;;;;;;486254;245;1203;-74
2022/09/28 06:35:45;;;;;;;;;;;22.50;41.90;;;;;;486414;244;1117;-75
2022/09/28 06:37:46;;;;;;;;;;;22.60;41.80;;;;;;486266;245;1078;-74
2022/09/28 06:39:47;;;;;;;;;;;22.60;41.80;;;;;;486426;245;1153;-74
2022/09/28 06:41:49;;;;;;;;;;;22.40;42.00;;;;;;485927;245;1155;-74
2022/09/28 06:43:51;;;;;;;;;;;22.40;42.10;;;;;;485569;245;1186;-74
2022/09/28 06:45:52;;;;;;;;;;;22.30;42.20;;;;;;485822;244;2206;-74
2022/09/28 06:47:53;;;;;;;;;;;22.40;42.20;;;;;;485849;245;1309;-74
2022/09/28 06:49:55;;;;;;;;;;;22.40;42.20;;;;;;485880;244;1244;-74
2022/09/28 06:51:56;;;;;;;;;;;22.40;42.20;;;;;;485993;244;1277;-74
2022/09/28 06:53:57;;;;;;;;;;;22.40;42.20;;;;;;485777;245;1247;-74
2022/09/28 06:56:00;;;;;;;;;;;22.40;42.20;;;;;;485820;244;1270;-74
2022/09/28 06:58:00;;;;;;;;;;;22.30;42.20;;;;;;485760;245;1449;-74
2022/09/28 07:00:02;;;;;;;;;;;22.30;42.40;;;;;;485827;245;1252;-74
2022/09/28 07:02:03;;;;;;;;;;;22.40;42.30;;;;;;485905;244;1167;-74
2022/09/28 07:04:04;;;;;;;;;;;22.40;42.30;;;;;;485939;244;1093;-74
2022/09/28 07:06:05;;;;;;;;;;;22.40;42.30;;;;;;485926;245;2170;-74
2022/09/28 07:08:07;;;;;;;;;;;22.50;42.20;;;;;;486108;244;1099;-74
2022/09/28 07:10:08;;;;;;;;;;;22.60;42.10;;;;;;485827;245;1131;-74
2022/09/28 07:12:12;;;;;;;;;;;22.70;41.80;;;;;;486176;244;1061;-74
2022/09/28 07:14:11;;;;;;;;;;;22.60;42.00;;;;;;486065;245;1420;-74
2022/09/28 07:16:12;;;;;;;;;;;22.50;42.20;;;;;;485998;245;1121;-74
2022/09/28 07:18:13;;;;;;;;;;;22.50;42.30;;;;;;486000;244;1536;-74
2022/09/28 07:20:15;;;;;;;;;;;22.50;42.30;;;;;;486174;245;1220;-74
2022/09/28 07:22:16;;;;;;;;;;;22.50;42.30;;;;;;486106;244;1217;-74
2022/09/28 07:24:17;;;;;;;;;;;22.40;42.60;;;;;;486175;245;1203;-74
2022/09/28 07:26:19;;;;;;;;;;;22.40;42.60;;;;;;486136;244;2182;-74
2022/09/28 07:28:21;;;;;;;;;;;22.30;42.70;;;;;;485985;245;1308;-74
2022/09/28 07:30:22;;;;;;;;;;;22.40;42.80;;;;;;486026;245;1185;-74
2022/09/28 07:32:23;;;;;;;;;;;22.50;42.50;;;;;;485947;244;1106;-74
2022/09/28 07:34:24;;;;;;;;;;;22.50;42.40;;;;;;485974;245;1094;-74
2022/09/28 07:36:25;;;;;;;;;;;22.60;42.40;;;;;;486023;245;1223;-74
2022/09/28 07:38:27;;;;;;;;;;;22.60;42.30;;;;;;486049;244;1283;-74
2022/09/28 07:42:48;;;;;;;;;;;22.70;42.20;;;;;;486042;245;1148;-74
2022/09/28 07:44:49;;;;;;;;;;;22.60;42.30;;;;;;485972;244;1276;-74
2022/09/28 07:46:50;;;;;;;;;;;22.70;42.40;;;;;;486016;245;2186;-74
2022/09/28 07:48:52;;;;;;;;;;;22.80;42.30;;;;;;486240;244;1215;-74
2022/09/28 07:50:53;;;;;;;;;;;22.80;42.10;;;;;;486179;245;1404;-74
2022/09/28 07:52:54;;;;;;;;;;;22.80;42.20;;;;;;486127;245;1214;-74
2022/09/28 07:54:55;;;;;;;;;;;22.70;42.20;;;;;;485999;244;1173;-74
2022/09/28 07:56:57;;;;;;;;;;;22.70;42.20;;;;;;486056;245;1228;-74
2022/09/28 07:58:58;;;;;;;;;;;22.80;42.10;;;;;;486053;245;1079;-74
2022/09/28 08:01:00;;;;;;;;;;;22.80;42.10;;;;;;486258;245;1190;-74
2022/09/28 08:03:01;;;;;;;;;;;22.80;42.10;;;;;;486066;245;1102;-74
2022/09/28 08:05:03;;;;;;;;;;;22.90;42.10;;;;;;486089;244;1087;-74
2022/09/28 08:07:04;;;;;;;;;;;22.80;42.00;;;;;;486260;244;2127;-74
2022/09/28 08:09:05;;;;;;;;;;;22.90;42.00;;;;;;486073;245;1089;-74
2022/09/28 08:11:09;;;;;;;;;;;22.90;42.00;;;;;;486090;244;1097;-74
2022/09/28 08:13:08;;;;;;;;;;;22.90;42.00;;;;;;485800;245;1383;-74
2022/09/28 08:15:10;;;;;;;;;;;22.90;41.90;;;;;;486014;245;1084;-74
2022/09/28 08:17:11;;;;;;;;;;;22.90;42.00;;;;;;486040;245;1411;-74
2022/09/28 08:19:12;;;;;;;;;;;22.90;42.00;;;;;;485979;245;1159;-74
2022/09/28 08:23:32;;;;;;;;;;;22.90;42.10;;;;;;486109;245;1229;-74
2022/09/28 08:25:37;;;;;;;;;;;22.90;42.10;;;;;;485928;245;2206;-74
2022/09/28 08:27:35;;;;;;;;;;;22.90;42.10;;;;;;485899;245;1385;-74
2022/09/28 08:29:36;;;;;;;;;;;23.00;42.00;;;;;;486020;245;1220;-74
2022/09/28 08:31:37;;;;;;;;;;;22.90;42.20;;;;;;486239;244;1093;-74
2022/09/28 08:33:40;;;;;;;;;;;22.90;42.20;;;;;;486163;245;1162;-74
2022/09/28 08:35:41;;;;;;;;;;;22.90;42.10;;;;;;485903;245;1349;-74
2022/09/28 08:37:42;;;;;;;;;;;23.00;42.10;;;;;;486202;245;1083;-74
2022/09/28 08:39:43;;;;;;;;;;;23.00;42.10;;;;;;486039;244;1065;-74
2022/09/28 08:41:45;;;;;;;;;;;22.90;42.30;;;;;;486137;245;1102;-74
2022/09/28 08:43:46;;;;;;;;;;;23.00;42.20;;;;;;486145;244;1157;-74
2022/09/28 08:45:47;;;;;;;;;;;23.00;42.30;;;;;;486119;245;2183;-74
2022/09/28 08:50:09;;;;;;;;;;;22.80;42.50;;;;;;486117;245;1176;-74
2022/09/28 08:52:09;;;;;;;;;;;22.80;42.50;;;;;;485925;245;1147;-75
2022/09/28 08:54:11;;;;;;;;;;;22.80;42.70;;;;;;485933;245;1218;-74
2022/09/28 08:56:12;;;;;;;;;;;22.80;42.80;;;;;;485936;245;1193;-74
2022/09/28 08:58:13;;;;;;;;;;;22.80;42.80;;;;;;485994;245;1097;-74
2022/09/28 09:00:15;;;;;;;;;;;22.90;42.70;;;;;;486199;244;1123;-74
2022/09/28 09:02:16;;;;;;;;;;;22.90;42.70;;;;;;486488;245;1350;-74
2022/09/28 09:04:17;;;;;;;;;;;22.90;42.70;;;;;;486339;244;1166;-74
2022/09/28 09:06:19;;;;;;;;;;;22.80;42.80;;;;;;486674;245;2170;-74
2022/09/28 09:08:20;;;;;;;;;;;22.80;43.00;;;;;;486400;245;1099;-74
2022/09/28 09:10:21;;;;;;;;;;;22.90;42.90;;;;;;486481;245;1068;-74
2022/09/28 09:12:23;;;;;;;;;;;23.00;42.90;;;;;;486621;245;1091;-74
2022/09/28 09:14:26;;;;;;;;;;;23.00;42.80;;;;;;486602;244;1156;-74
2022/09/28 09:16:25;;;;;;;;;;;23.00;42.70;;;;;;486370;245;1462;-74
2022/09/28 09:18:27;;;;;;;;;;;23.00;42.80;;;;;;486448;245;1117;-74
2022/09/28 09:20:28;;;;;;;;;;;23.00;42.80;;;;;;486429;244;1122;-74
2022/09/28 09:22:29;;;;;;;;;;;23.00;42.80;;;;;;486532;244;1074;-74
2022/09/28 09:24:31;;;;;;;;;;;23.00;42.60;;;;;;486432;245;1066;-74
2022/09/28 09:26:32;;;;;;;;;;;23.00;42.60;;;;;;486609;245;2178;-76
2022/09/28 09:28:34;;;;;;;;;;;23.00;42.50;;;;;;486518;244;1129;-74
2022/09/28 09:30:35;;;;;;;;;;;23.10;42.60;;;;;;486672;245;1053;-74
2022/09/28 09:32:36;;;;;;;;;;;23.10;42.60;;;;;;486394;244;1070;-74
2022/09/28 09:34:37;;;;;;;;;;;23.10;42.60;;;;;;486348;245;1197;-74
2022/09/28 09:36:39;;;;;;;;;;;23.10;42.60;;;;;;486584;244;1245;-74
2022/09/28 09:38:40;;;;;;;;;;;23.10;42.60;;;;;;486531;245;1119;-74
2022/09/28 09:40:41;;;;;;;;;;;23.20;42.50;;;;;;486462;245;1073;-74
2022/09/28 09:42:43;;;;;;;;;;;23.20;42.40;;;;;;486607;245;1160;-74
2022/09/28 09:44:44;;;;;;;;;;;23.20;42.40;;;;;;486556;245;1131;-74
2022/09/28 09:46:45;;;;;;;;;;;23.20;42.40;;;;;;486455;245;2155;-74
2022/09/28 09:48:47;;;;;;;;;;;23.20;42.50;;;;;;486582;244;1173;-74
2022/09/28 09:50:48;;;;;;;;;;;23.20;42.60;;;;;;486613;244;1184;-74
2022/09/28 09:52:50;;;;;;;;;;;23.20;42.50;;;;;;486343;245;1125;-74
2022/09/28 09:54:51;;;;;;;;;;;23.20;42.50;;;;;;486534;245;1129;-74
2022/09/28 09:56:53;;;;;;;;;;;23.20;42.50;;;;;;486516;244;1122;-74
2022/09/28 09:58:54;;;;;;;;;;;23.30;42.40;;;;;;486398;244;1095;-74
2022/09/28 10:00:55;;;;;;;;;;;23.30;42.40;;;;;;486648;245;1096;-74
2022/09/28 10:02:58;;;;;;;;;;;23.30;42.40;;;;;;486214;244;1059;-74
2022/09/28 10:04:58;;;;;;;;;;;23.20;42.50;;;;;;486372;245;1458;-74
2022/09/28 10:06:59;;;;;;;;;;;23.20;42.40;;;;;;486395;244;2190;-74
2022/09/28 10:09:01;;;;;;;;;;;23.20;42.40;;;;;;486408;244;1099;-74
2022/09/28 10:11:02;;;;;;;;;;;23.20;42.40;;;;;;486555;245;1057;-74
2022/09/28 10:13:03;;;;;;;;;;;23.20;42.50;;;;;;486598;245;1131;-74
2022/09/28 10:15:05;;;;;;;;;;;23.20;42.60;;;;;;486513;244;1205;-74
2022/09/28 10:17:06;;;;;;;;;;;23.20;42.50;;;;;;486512;244;1166;-74
2022/09/28 10:19:07;;;;;;;;;;;23.20;42.50;;;;;;486548;245;1065;-74
2022/09/28 10:21:09;;;;;;;;;;;23.20;42.50;;;;;;486640;244;1136;-74
2022/09/28 10:23:11;;;;;;;;;;;23.20;42.60;;;;;;486556;244;1149;-74
2022/09/28 10:25:11;;;;;;;;;;;23.20;42.50;;;;;;486550;245;1473;-74
2022/09/28 10:27:13;;;;;;;;;;;23.20;42.60;;;;;;486600;245;2163;-74
2022/09/28 10:29:14;;;;;;;;;;;23.20;42.50;;;;;;486604;244;1120;-74
2022/09/28 10:31:15;;;;;;;;;;;23.30;42.50;;;;;;486694;244;1168;-74
2022/09/28 10:33:17;;;;;;;;;;;23.30;42.50;;;;;;486372;245;1193;-74
2022/09/28 10:35:18;;;;;;;;;;;23.30;42.40;;;;;;486595;244;1221;-74
2022/09/28 10:37:19;;;;;;;;;;;23.30;42.50;;;;;;486492;244;1201;-74
2022/09/28 10:39:21;;;;;;;;;;;23.20;42.60;;;;;;486589;245;1170;-74
2022/09/28 10:41:22;;;;;;;;;;;23.20;42.70;;;;;;486595;244;1251;-74
2022/09/28 10:43:23;;;;;;;;;;;23.20;42.60;;;;;;486509;245;1316;-74
2022/09/28 10:45:25;;;;;;;;;;;23.30;42.50;;;;;;486601;245;1134;-74
2022/09/28 10:47:26;;;;;;;;;;;23.30;42.40;;;;;;486391;245;2199;-74
2022/09/28 10:49:28;;;;;;;;;;;23.30;42.40;;;;;;486408;245;1105;-74
2022/09/28 10:51:29;;;;;;;;;;;23.30;42.40;;;;;;486648;245;1339;-74
2022/09/28 10:53:30;;;;;;;;;;;23.30;42.40;;;;;;486536;244;1100;-74
2022/09/28 10:55:32;;;;;;;;;;;23.20;42.50;;;;;;486252;244;1200;-74
2022/09/28 10:57:33;;;;;;;;;;;23.20;42.50;;;;;;486281;244;1114;-74
2022/09/28 10:59:34;;;;;;;;;;;23.30;42.50;;;;;;486285;245;1266;-74
2022/09/28 11:01:36;;;;;;;;;;;23.30;42.50;;;;;;486434;244;1144;-74
2022/09/28 11:03:37;;;;;;;;;;;23.30;42.40;;;;;;486236;245;1129;-74
2022/09/28 11:05:38;;;;;;;;;;;23.30;42.30;;;;;;486554;244;1032;-74
2022/09/28 11:07:39;;;;;;;;;;;23.30;42.40;;;;;;486568;244;2186;-74
2022/09/28 11:09:41;;;;;;;;;;;23.30;42.40;;;;;;486315;245;1028;-74
2022/09/28 11:11:42;;;;;;;;;;;23.30;42.40;;;;;;486423;244;1108;-74
2022/09/28 11:13:44;;;;;;;;;;;23.30;42.40;;;;;;486499;244;1228;-74
2022/09/28 11:15:45;;;;;;;;;;;23.40;42.20;;;;;;486522;245;1059;-74
2022/09/28 11:17:46;;;;;;;;;;;23.40;42.30;;;;;;486289;245;1069;-74
2022/09/28 11:19:48;;;;;;;;;;;23.40;42.40;;;;;;486186;244;1135;-74
2022/09/28 11:21:49;;;;;;;;;;;23.40;42.30;;;;;;486192;245;1179;-74
2022/09/28 11:23:50;;;;;;;;;;;23.40;42.30;;;;;;486213;244;1403;-74
2022/09/28 11:25:51;;;;;;;;;;;23.40;42.40;;;;;;486181;244;1091;-74
2022/09/28 11:27:53;;;;;;;;;;;23.30;42.40;;;;;;486032;244;2155;-74
2022/09/28 11:29:55;;;;;;;;;;;23.40;42.40;;;;;;486226;245;1169;-74
2022/09/28 11:31:56;;;;;;;;;;;23.40;42.40;;;;;;486188;244;1180;-74
2022/09/28 11:33:57;;;;;;;;;;;23.40;42.40;;;;;;486245;245;1067;-74
2022/09/28 11:35:59;;;;;;;;;;;23.40;42.40;;;;;;486322;245;1151;-74
2022/09/28 11:38:01;;;;;;;;;;;23.30;42.40;;;;;;486390;244;1201;-74
2022/09/28 11:40:03;;;;;;;;;;;23.30;42.60;;;;;;486407;244;1052;-74
2022/09/28 11:42:03;;;;;;;;;;;23.30;42.50;;;;;;486312;245;1363;-74
2022/09/28 11:44:05;;;;;;;;;;;23.30;42.60;;;;;;486151;244;1086;-74
2022/09/28 11:46:06;;;;;;;;;;;23.30;42.50;;;;;;486222;244;1115;-74
2022/09/28 11:48:07;;;;;;;;;;;23.30;42.50;;;;;;486358;245;2159;-74
2022/09/28 11:50:09;;;;;;;;;;;23.30;42.50;;;;;;486435;244;1107;-74
2022/09/28 11:52:10;;;;;;;;;;;23.30;42.60;;;;;;486361;244;1110;-74
2022/09/28 11:54:13;;;;;;;;;;;23.30;42.70;;;;;;486483;245;1091;-76
2022/09/28 11:56:13;;;;;;;;;;;23.30;42.60;;;;;;486456;245;1565;-74
2022/09/28 11:58:15;;;;;;;;;;;23.30;42.60;;;;;;486515;245;1165;-74
2022/09/28 12:00:16;;;;;;;;;;;23.30;42.70;;;;;;486542;244;1049;-75
2022/09/28 12:02:17;;;;;;;;;;;23.30;42.80;;;;;;486485;245;1312;-74
2022/09/28 12:04:18;;;;;;;;;;;23.30;42.80;;;;;;486444;245;1093;-74
2022/09/28 12:06:20;;;;;;;;;;;23.30;42.80;;;;;;486392;245;1291;-74